Time;durP1;ratioP1;P1;durP2;ratioP2;P2;SDS_P1;SDS_P2;PMS_P1;PMS_P2;Temp;Humidity;BMP_temperature;BMP_pressure;BME280_temperature;BME280_humidity;BME280_pressure;Samples;Min_cycle;Max_cycle;Signal;HPM_P1;HPM_P2
2023/01/09 00:01:54;;;;;;;2.87;0.98;;;13.40;64.00;;;;;;2528995;54;21484;-83
2023/01/09 00:04:20;;;;;;;2.12;0.88;;;13.40;64.00;;;;;;2555709;54;20985;-83
2023/01/09 00:06:52;;;;;;;3.53;0.95;;;13.40;64.10;;;;;;2555969;54;22058;-83
2023/01/09 00:09:22;;;;;;;1.85;0.80;;;13.40;64.10;;;;;;2555570;54;20986;-83
2023/01/09 00:11:48;;;;;;;2.03;0.73;;;13.40;64.10;;;;;;2317027;55;20966;-83
2023/01/09 00:14:16;;;;;;;1.40;0.60;;;13.30;64.00;;;;;;2316198;55;21017;-84
2023/01/09 00:16:42;;;;;;;1.45;0.68;;;13.30;64.00;;;;;;2316588;55;20922;-83
2023/01/09 00:19:10;;;;;;;1.67;0.75;;;13.30;64.00;;;;;;2555673;54;21042;-83
2023/01/09 00:21:36;;;;;;;2.35;0.90;;;13.30;64.10;;;;;;2556220;54;21501;-82
2023/01/09 00:24:03;;;;;;;1.80;0.80;;;13.30;64.20;;;;;;2555329;54;20923;-84
2023/01/09 00:26:29;;;;;;;1.60;0.60;;;13.30;64.20;;;;;;2555097;54;20914;-82
2023/01/09 00:28:55;;;;;;;1.60;0.70;;;13.20;64.10;;;;;;2556120;54;20938;-84
2023/01/09 00:31:22;;;;;;;2.17;0.70;;;13.20;64.20;;;;;;2557363;54;20974;-83
2023/01/09 00:33:59;;;;;;;2.62;0.90;;;13.30;64.40;;;;;;2557342;54;20918;-83
2023/01/09 00:36:25;;;;;;;2.08;0.98;;;13.20;64.30;;;;;;2559359;54;20944;-82
2023/01/09 00:38:52;;;;;;;2.10;0.80;;;13.20;64.30;;;;;;2319490;55;20987;-83
2023/01/09 00:41:53;;;;;;;1.67;0.70;;;13.20;64.20;;;;;;2558507;54;21002;-83
2023/01/09 00:44:25;;;;;;;1.67;0.70;;;13.20;64.30;;;;;;2558863;54;20953;-83
2023/01/09 00:46:53;;;;;;;;;;;13.20;64.30;;;;;;2323017;55;21842;-83
2023/01/09 00:49:20;;;;;;;1.65;0.60;;;13.20;64.30;;;;;;2559041;54;20118;-83
2023/01/09 00:51:46;;;;;;;1.52;0.70;;;13.10;64.10;;;;;;2319844;55;21763;-83
2023/01/09 00:54:14;;;;;;;1.45;0.70;;;13.10;64.20;;;;;;2559755;54;20969;-83
2023/01/09 00:56:40;;;;;;;1.40;0.68;;;13.10;64.40;;;;;;2301954;55;20944;-83
2023/01/09 00:59:06;;;;;;;1.55;0.60;;;13.10;64.40;;;;;;2322337;55;20961;-83
2023/01/09 01:01:33;;;;;;;1.73;0.60;;;13.10;64.50;;;;;;2319945;55;22247;-83
2023/01/09 01:07:37;;;;;;;1.55;0.50;;;13.00;64.40;;;;;;2557572;54;20906;-83
2023/01/09 01:10:09;;;;;;;1.67;0.60;;;13.00;64.60;;;;;;2558219;54;21037;-83
2023/01/09 01:12:36;;;;;;;1.55;0.70;;;13.00;64.40;;;;;;2559121;54;20902;-83
2023/01/09 01:15:03;;;;;;;2.70;0.80;;;13.00;64.50;;;;;;2319559;55;20926;-83
2023/01/09 01:17:30;;;;;;;2.08;0.75;;;13.00;64.70;;;;;;2319464;55;20949;-83
2023/01/09 01:19:56;;;;;;;2.15;0.80;;;13.00;64.70;;;;;;2558394;54;20922;-83
2023/01/09 01:22:22;;;;;;;1.52;0.70;;;13.00;64.90;;;;;;2319509;55;21005;-82
2023/01/09 01:24:49;;;;;;;1.45;0.70;;;13.00;64.90;;;;;;2558475;54;20917;-83
2023/01/09 01:27:15;;;;;;;1.73;0.70;;;13.00;65.00;;;;;;2557259;54;20958;-83
2023/01/09 01:29:42;;;;;;;2.20;0.77;;;13.00;65.00;;;;;;2555888;54;21739;-83
2023/01/09 01:32:08;;;;;;;2.30;0.77;;;13.00;65.10;;;;;;2558215;54;21941;-83
2023/01/09 01:34:34;;;;;;;1.75;0.75;;;13.00;65.10;;;;;;2559976;54;20957;-83
2023/01/09 01:37:01;;;;;;;2.05;0.80;;;13.00;65.10;;;;;;2559141;54;20989;-84
2023/01/09 01:39:27;;;;;;;2.42;1.08;;;13.00;65.10;;;;;;2558816;54;20981;-83
2023/01/09 01:41:54;;;;;;;1.67;0.70;;;13.00;65.20;;;;;;2319353;55;20927;-83
2023/01/09 01:44:57;;;;;;;1.70;0.75;;;13.00;65.20;;;;;;2559027;54;20897;-84
2023/01/09 01:54:15;;;;;;;1.50;0.70;;;13.00;65.30;;;;;;2559379;54;20946;-83
2023/01/09 01:56:45;;;;;;;0.93;0.40;;;13.00;65.20;;;;;;2560988;54;20922;-83
2023/01/09 01:59:25;;;;;;;0.88;0.47;;;13.00;64.80;;;;;;2325193;55;20989;-83
2023/01/09 02:01:53;;;;;;;1.83;0.60;;;13.00;64.90;;;;;;2560127;54;20950;-85
2023/01/09 02:04:20;;;;;;;0.88;0.40;;;13.00;64.80;;;;;;2560419;54;20933;-86
2023/01/09 02:06:47;;;;;;;3.28;0.68;;;13.00;64.90;;;;;;2561442;54;22155;-85
2023/01/09 02:09:14;;;;;;;0.80;0.40;;;12.90;64.90;;;;;;2562041;54;21040;-86
2023/01/09 02:11:45;;;;;;;0.77;0.40;;;12.90;64.90;;;;;;2562430;54;20934;-83
2023/01/09 02:14:11;;;;;;;1.17;0.45;;;12.90;64.90;;;;;;2322204;55;20978;-81
2023/01/09 02:17:09;;;;;;;1.10;0.40;;;12.90;64.90;;;;;;2322094;55;20922;-83
2023/01/09 02:20:47;;;;;;;0.85;0.40;;;12.90;65.30;;;;;;2322322;55;20925;-86
2023/01/09 02:25:07;;;;;;;0.90;0.40;;;12.90;64.90;;;;;;2561392;54;20957;-83
2023/01/09 02:28:00;;;;;;;0.85;0.30;;;12.80;64.70;;;;;;2321007;55;21038;-83
2023/01/09 02:30:49;;;;;;;1.00;0.30;;;12.80;64.70;;;;;;2321509;55;20946;-83
2023/01/09 02:34:53;;;;;;;0.47;0.30;;;12.80;64.70;;;;;;2561026;54;20937;-83
2023/01/09 02:37:46;;;;;;;0.75;0.30;;;12.80;64.70;;;;;;2561157;54;20986;-85
2023/01/09 02:40:32;;;;;;;1.48;0.40;;;12.80;64.70;;;;;;2561169;54;21080;-84
2023/01/09 02:42:59;;;;;;;0.60;0.40;;;12.70;64.50;;;;;;2560982;54;20977;-85
2023/01/09 02:45:25;;;;;;;0.52;0.30;;;12.70;64.60;;;;;;2321470;55;21044;-82
2023/01/09 02:47:51;;;;;;;0.50;0.30;;;12.70;64.60;;;;;;2561196;54;20993;-83
2023/01/09 02:50:38;;;;;;;0.82;0.30;;;12.60;64.50;;;;;;2561064;54;20914;-83
2023/01/09 02:56:46;;;;;;;0.32;0.22;;;12.60;64.50;;;;;;2561010;54;21782;-83
2023/01/09 02:59:17;;;;;;;0.52;0.30;;;12.60;64.50;;;;;;2533864;54;21785;-83
2023/01/09 03:03:26;;;;;;;0.68;0.30;;;12.60;64.50;;;;;;2534619;54;21870;-86
2023/01/09 03:06:00;;;;;;;0.40;0.20;;;12.60;64.50;;;;;;2562559;54;21005;-86
2023/01/09 03:08:40;;;;;;;1.12;0.30;;;12.60;64.50;;;;;;2563336;54;20986;-86
2023/01/09 03:11:07;;;;;;;0.35;0.30;;;12.50;64.30;;;;;;2563571;54;20926;-83
2023/01/09 03:13:45;;;;;;;1.05;0.40;;;12.50;64.40;;;;;;2563760;54;21728;-84
2023/01/09 03:16:15;;;;;;;0.80;0.30;;;12.50;64.30;;;;;;2323105;55;20973;-83
2023/01/09 03:18:42;;;;;;;0.90;0.30;;;12.50;64.40;;;;;;2562834;54;21317;-85
2023/01/09 03:21:08;;;;;;;0.75;0.30;;;12.50;64.40;;;;;;2535156;54;20977;-83
2023/01/09 03:23:54;;;;;;;0.93;0.40;;;12.40;64.20;;;;;;2562911;54;20937;-83
2023/01/09 03:26:21;;;;;;;0.47;0.30;;;12.40;64.00;;;;;;2562068;54;20934;-83
2023/01/09 03:28:48;;;;;;;0.30;0.20;;;12.40;64.00;;;;;;2561757;54;20926;-83
2023/01/09 03:31:14;;;;;;;0.88;0.28;;;12.30;63.60;;;;;;2560795;54;21855;-85
2023/01/09 03:33:41;;;;;;;0.28;0.20;;;12.30;63.60;;;;;;2561756;54;20953;-85
2023/01/09 03:36:07;;;;;;;0.25;0.17;;;12.30;63.50;;;;;;2561266;54;21386;-83
2023/01/09 03:38:34;;;;;;;0.20;0.20;;;12.20;63.30;;;;;;2561095;54;20957;-85
2023/01/09 03:41:01;;;;;;;0.70;0.20;;;12.20;63.30;;;;;;2561227;54;20969;-86
2023/01/09 03:43:27;;;;;;;0.30;0.20;;;12.10;63.10;;;;;;2561099;54;21493;-85
2023/01/09 03:45:53;;;;;;;0.10;0.10;;;12.10;63.20;;;;;;2561449;54;20955;-84
2023/01/09 03:48:19;;;;;;;0.17;0.13;;;12.00;63.20;;;;;;2561603;54;20909;-84
2023/01/09 03:50:49;;;;;;;0.30;0.20;;;12.10;63.40;;;;;;2561972;54;21001;-85
2023/01/09 03:53:16;;;;;;;0.17;0.10;;;12.00;63.20;;;;;;2561402;54;21418;-85
2023/01/09 03:55:45;;;;;;;0.75;0.20;;;11.90;63.00;;;;;;2561743;54;20957;-85
2023/01/09 03:58:12;;;;;;;0.30;0.20;;;11.80;62.90;;;;;;2561496;54;21976;-85
2023/01/09 04:00:39;;;;;;;0.15;0.15;;;11.80;62.90;;;;;;2321655;55;20930;-83
2023/01/09 04:03:07;;;;;;;0.45;0.20;;;11.80;62.90;;;;;;2561115;54;20941;-85
2023/01/09 04:05:33;;;;;;;4.57;1.70;;;11.70;62.80;;;;;;2321846;55;21025;-85
2023/01/09 04:07:59;;;;;;;16.95;9.18;;;11.70;62.90;;;;;;2561000;54;20981;-86
2023/01/09 04:10:26;;;;;;;9.52;5.10;;;11.60;62.90;;;;;;2561191;54;21310;-84
2023/01/09 04:12:52;;;;;;;4.62;2.12;;;11.60;62.90;;;;;;2321875;55;20969;-85
2023/01/09 04:15:18;;;;;;;3.85;1.60;;;11.60;63.00;;;;;;2321053;55;20982;-85
2023/01/09 04:17:45;;;;;;;2.90;1.12;;;11.50;62.90;;;;;;2561565;54;20914;-85
2023/01/09 04:20:11;;;;;;;1.67;0.65;;;11.50;62.90;;;;;;2321533;55;21525;-85
2023/01/09 04:22:38;;;;;;;2.05;0.50;;;11.40;62.90;;;;;;2321569;55;20945;-85
2023/01/09 04:25:05;;;;;;;0.50;0.30;;;11.40;62.90;;;;;;2561438;54;20917;-84
2023/01/09 04:27:32;;;;;;;0.75;0.30;;;11.30;62.80;;;;;;2561238;54;20933;-85
2023/01/09 04:29:58;;;;;;;0.62;0.20;;;11.30;62.70;;;;;;2561087;54;20925;-85
2023/01/09 04:32:26;;;;;;;0.32;0.20;;;11.30;62.70;;;;;;2561389;54;21537;-85
2023/01/09 04:34:55;;;;;;;0.47;0.28;;;11.20;62.60;;;;;;2561546;54;20961;-85
2023/01/09 04:37:22;;;;;;;0.10;0.10;;;11.20;62.60;;;;;;2560734;54;20949;-85
2023/01/09 04:39:54;;;;;;;1.87;0.37;;;11.10;62.50;;;;;;2561556;54;20957;-85
2023/01/09 04:42:21;;;;;;;1.00;0.30;;;11.10;62.40;;;;;;2561463;54;20977;-85
2023/01/09 04:44:47;;;;;;;0.55;0.28;;;11.10;62.40;;;;;;2321993;55;20957;-85
2023/01/09 04:47:14;;;;;;;0.28;0.20;;;11.00;62.20;;;;;;2561200;54;21349;-85
2023/01/09 04:49:41;;;;;;;0.60;0.30;;;11.00;62.20;;;;;;2561886;54;20957;-84
2023/01/09 04:52:07;;;;;;;0.35;0.28;;;11.00;62.10;;;;;;2561034;54;21030;-84
2023/01/09 04:54:34;;;;;;;1.40;0.40;;;10.90;62.10;;;;;;2562124;54;20930;-85
2023/01/09 04:57:01;;;;;;;0.55;0.25;;;10.90;62.10;;;;;;2322101;55;20925;-85
2023/01/09 04:59:27;;;;;;;1.40;0.40;;;10.80;62.00;;;;;;2561117;54;20934;-84
2023/01/09 05:01:54;;;;;;;0.65;0.30;;;10.70;61.90;;;;;;2563657;54;21025;-86
2023/01/09 05:04:21;;;;;;;0.30;0.20;;;10.70;61.90;;;;;;2323680;55;21433;-85
2023/01/09 05:06:48;;;;;;;0.52;0.22;;;10.70;62.00;;;;;;2324403;55;20929;-86
2023/01/09 05:09:14;;;;;;;0.98;0.30;;;10.60;61.90;;;;;;2564196;54;21014;-86
2023/01/09 05:11:41;;;;;;;0.77;0.30;;;10.60;62.00;;;;;;2563628;54;20901;-85
2023/01/09 05:14:08;;;;;;;2.28;0.30;;;10.60;62.00;;;;;;2562776;54;20926;-85
2023/01/09 05:16:34;;;;;;;2.50;0.30;;;10.60;62.10;;;;;;2562714;54;21565;-84
2023/01/09 05:19:01;;;;;;;0.45;0.20;;;10.50;62.10;;;;;;2320446;55;20973;-85
2023/01/09 05:21:27;;;;;;;0.80;0.40;;;10.50;62.10;;;;;;2559651;54;20989;-85
2023/01/09 05:23:54;;;;;;;1.15;0.37;;;10.50;62.10;;;;;;2559562;54;20977;-84
2023/01/09 05:26:22;;;;;;;1.12;0.40;;;10.50;62.20;;;;;;2559630;54;21001;-84
2023/01/09 05:28:57;;;;;;;1.75;0.50;;;10.40;62.10;;;;;;2560837;54;20978;-84
2023/01/09 05:31:24;;;;;;;0.62;0.30;;;10.40;62.80;;;;;;2320157;55;21845;-84
2023/01/09 05:33:51;;;;;;;1.60;0.47;;;10.40;62.10;;;;;;2320540;55;22235;-85
2023/01/09 05:36:18;;;;;;;0.98;0.40;;;10.30;62.10;;;;;;2559911;54;21009;-84
2023/01/09 05:38:44;;;;;;;1.30;0.40;;;10.30;62.10;;;;;;2560385;54;21088;-85
2023/01/09 05:41:14;;;;;;;0.52;0.22;;;10.30;62.10;;;;;;2319639;55;21319;-84
2023/01/09 05:43:40;;;;;;;0.37;0.30;;;10.30;62.10;;;;;;2320180;55;21772;-85
2023/01/09 05:46:07;;;;;;;2.85;0.60;;;10.20;62.00;;;;;;2320291;55;21141;-84
2023/01/09 05:48:36;;;;;;;1.48;0.50;;;10.30;62.20;;;;;;2559986;54;21268;-85
2023/01/09 05:51:03;;;;;;;0.75;0.30;;;10.20;62.00;;;;;;2559863;54;20944;-85
2023/01/09 05:53:29;;;;;;;0.55;0.30;;;10.30;62.20;;;;;;2559759;54;20985;-84
2023/01/09 05:55:55;;;;;;;1.77;0.40;;;10.20;62.10;;;;;;2319612;55;21049;-84
2023/01/09 05:58:22;;;;;;;1.92;0.50;;;10.10;62.00;;;;;;2319205;55;21061;-83
2023/01/09 06:00:50;;;;;;;2.03;0.40;;;10.20;62.00;;;;;;2319420;55;22625;-84
2023/01/09 06:03:17;;;;;;;1.33;0.30;;;10.30;62.10;;;;;;2559030;54;21025;-84
2023/01/09 06:05:43;;;;;;;1.95;0.25;;;10.20;62.00;;;;;;2319854;55;20961;-83
2023/01/09 06:08:10;;;;;;;0.50;0.22;;;10.30;62.10;;;;;;2320179;55;20965;-85
2023/01/09 06:10:36;;;;;;;0.40;0.20;;;10.20;61.90;;;;;;2561879;54;21722;-83
2023/01/09 06:13:03;;;;;;;0.68;0.30;;;10.20;62.00;;;;;;2321415;55;21449;-84
2023/01/09 06:15:29;;;;;;;1.23;0.40;;;10.30;62.10;;;;;;2561412;54;20993;-84
2023/01/09 06:17:55;;;;;;;1.85;0.55;;;10.20;62.00;;;;;;2561505;54;20942;-84
2023/01/09 06:20:21;;;;;;;1.33;0.40;;;10.20;62.00;;;;;;2321145;55;21002;-83
2023/01/09 06:22:50;;;;;;;0.90;0.40;;;10.20;62.10;;;;;;2561833;54;20922;-85
2023/01/09 06:25:17;;;;;;;0.65;0.30;;;10.20;62.10;;;;;;2561214;54;20973;-85
2023/01/09 06:27:44;;;;;;;3.53;0.50;;;10.20;62.10;;;;;;2561182;54;20946;-85
2023/01/09 06:30:11;;;;;;;1.05;0.30;;;10.20;62.10;;;;;;2320312;55;20922;-84
2023/01/09 06:32:37;;;;;;;1.35;0.40;;;10.20;62.00;;;;;;2561746;54;20988;-83
2023/01/09 06:35:04;;;;;;;1.95;0.40;;;10.30;62.10;;;;;;2561173;54;21036;-84
2023/01/09 06:37:30;;;;;;;1.42;0.40;;;10.20;62.00;;;;;;2320205;55;21005;-84
2023/01/09 06:39:57;;;;;;;1.35;0.60;;;10.30;62.10;;;;;;2560922;54;21885;-85
2023/01/09 06:42:25;;;;;;;1.00;0.32;;;10.30;62.10;;;;;;2560508;54;20990;-84
2023/01/09 06:44:51;;;;;;;2.95;0.47;;;10.30;62.10;;;;;;2320896;55;20968;-84
2023/01/09 06:47:18;;;;;;;1.75;0.30;;;10.30;62.10;;;;;;2541284;54;21021;-84
2023/01/09 06:49:44;;;;;;;0.80;0.32;;;10.30;62.00;;;;;;2552753;54;21303;-84
2023/01/09 06:52:11;;;;;;;2.35;0.62;;;10.30;62.00;;;;;;2320062;55;20946;-83
2023/01/09 06:54:40;;;;;;;2.55;0.60;;;10.30;62.00;;;;;;2320063;55;20953;-83
2023/01/09 06:57:07;;;;;;;2.15;0.60;;;10.30;61.90;;;;;;2560368;54;20953;-84
2023/01/09 06:59:33;;;;;;;3.25;0.57;;;10.30;61.90;;;;;;2559898;54;21853;-84
2023/01/09 07:02:00;;;;;;;3.33;0.52;;;10.30;61.80;;;;;;2320096;55;20965;-84
2023/01/09 07:04:27;;;;;;;2.97;0.52;;;10.30;61.80;;;;;;2560037;54;21006;-84
2023/01/09 07:06:53;;;;;;;3.90;0.80;;;10.30;61.80;;;;;;2560131;54;20942;-83
2023/01/09 07:09:19;;;;;;;5.07;1.08;;;10.30;61.80;;;;;;2560522;54;21465;-84
2023/01/09 07:11:46;;;;;;;2.80;0.80;;;10.30;61.70;;;;;;2320818;55;20942;-84
2023/01/09 07:14:12;;;;;;;5.15;2.08;;;10.20;61.60;;;;;;2319962;55;21186;-82
2023/01/09 07:16:39;;;;;;;3.87;1.48;;;10.20;61.60;;;;;;2560440;54;20997;-84
2023/01/09 07:19:05;;;;;;;4.07;1.40;;;10.30;61.70;;;;;;2320783;55;21793;-84
2023/01/09 07:21:31;;;;;;;2.90;0.80;;;10.20;61.60;;;;;;2320203;55;21020;-84
2023/01/09 07:23:58;;;;;;;3.42;0.95;;;10.20;61.60;;;;;;2560291;54;20929;-83
2023/01/09 07:26:24;;;;;;;4.10;1.25;;;10.20;61.60;;;;;;2559699;54;21482;-83
2023/01/09 07:28:53;;;;;;;4.37;1.42;;;10.20;61.70;;;;;;2320525;55;20937;-82
2023/01/09 07:31:19;;;;;;;5.18;1.85;;;10.20;61.70;;;;;;2560002;54;20973;-83
2023/01/09 07:33:46;;;;;;;6.05;2.35;;;10.20;61.70;;;;;;2560484;54;21445;-83
2023/01/09 07:36:13;;;;;;;5.78;2.10;;;10.30;61.70;;;;;;2320273;55;20953;-83
2023/01/09 07:38:40;;;;;;;6.03;2.37;;;10.20;61.70;;;;;;2320302;55;20946;-82
2023/01/09 07:41:06;;;;;;;4.50;1.60;;;10.20;61.70;;;;;;2319714;55;20990;-82
2023/01/09 07:43:32;;;;;;;3.30;0.90;;;10.20;61.70;;;;;;2559694;54;21862;-82
2023/01/09 07:45:58;;;;;;;5.12;1.00;;;10.20;61.70;;;;;;2560089;54;21889;-82
2023/01/09 07:48:25;;;;;;;2.00;0.70;;;10.20;61.70;;;;;;2559935;54;20965;-83
2023/01/09 07:50:52;;;;;;;2.17;0.70;;;10.20;61.70;;;;;;2560421;54;20990;-83
2023/01/09 07:53:19;;;;;;;2.87;0.47;;;10.20;61.60;;;;;;2320167;55;20966;-83
2023/01/09 07:55:45;;;;;;;2.75;0.52;;;10.30;61.70;;;;;;2561005;54;20903;-83
2023/01/09 07:58:11;;;;;;;1.58;0.40;;;10.20;61.60;;;;;;2560965;54;20989;-82
2023/01/09 08:00:38;;;;;;;3.00;0.60;;;10.30;61.70;;;;;;2560661;54;21002;-82
2023/01/09 08:03:05;;;;;;;1.90;0.70;;;10.30;61.70;;;;;;2321014;55;21028;-81
2023/01/09 08:05:31;;;;;;;3.20;0.77;;;10.20;61.50;;;;;;2560640;54;21012;-82
2023/01/09 08:07:57;;;;;;;4.97;1.15;;;10.20;61.50;;;;;;2320363;55;21288;-82
2023/01/09 08:10:25;;;;;;;2.30;0.60;;;10.30;61.60;;;;;;2320418;55;21016;-82
2023/01/09 08:12:51;;;;;;;2.08;0.47;;;10.30;61.60;;;;;;2561687;54;20961;-83
2023/01/09 08:15:17;;;;;;;2.45;0.55;;;10.20;61.40;;;;;;2560188;54;21341;-81
2023/01/09 08:17:44;;;;;;;5.30;0.68;;;10.20;61.30;;;;;;2560738;54;21005;-82
2023/01/09 08:20:12;;;;;;;4.57;0.80;;;10.20;61.30;;;;;;2319632;55;20945;-82
2023/01/09 08:22:41;;;;;;;6.30;0.80;;;10.20;61.30;;;;;;2319532;55;20938;-82
2023/01/09 08:25:08;;;;;;;2.60;0.80;;;10.30;61.40;;;;;;2320362;55;20950;-82
2023/01/09 08:27:37;;;;;;;2.15;0.65;;;10.30;61.40;;;;;;2560091;54;20938;-83
2023/01/09 08:30:04;;;;;;;2.22;0.77;;;10.20;61.20;;;;;;2319354;55;20969;-83
2023/01/09 08:32:31;;;;;;;3.17;0.75;;;10.20;61.20;;;;;;2319944;55;20985;-82
2023/01/09 08:34:57;;;;;;;4.15;0.55;;;10.30;61.40;;;;;;2560281;54;21862;-82
2023/01/09 08:37:23;;;;;;;2.92;1.10;;;10.30;61.30;;;;;;2319301;55;20937;-83
2023/01/09 08:39:50;;;;;;;2.17;0.60;;;10.10;61.10;;;;;;2560629;54;21844;-82
2023/01/09 08:47:45;;;;;;;3.45;0.90;;;10.30;61.30;;;;;;2560472;54;21010;-82
2023/01/09 08:50:12;;;;;;;3.92;0.80;;;10.30;61.30;;;;;;2320325;55;20969;-82
2023/01/09 08:52:39;;;;;;;3.10;0.95;;;10.30;61.30;;;;;;2320348;55;21017;-82
2023/01/09 08:55:05;;;;;;;4.50;1.10;;;10.30;61.30;;;;;;2320875;55;20938;-83
2023/01/09 08:57:32;;;;;;;4.70;1.20;;;10.40;61.40;;;;;;2560836;54;21015;-83
2023/01/09 08:59:58;;;;;;;3.15;1.05;;;10.40;61.40;;;;;;2561535;54;20981;-83
2023/01/09 09:02:26;;;;;;;4.05;0.80;;;10.40;61.30;;;;;;2319950;55;20946;-82
2023/01/09 09:04:52;;;;;;;2.67;0.55;;;10.40;61.30;;;;;;2320672;55;20902;-82
2023/01/09 09:07:25;;;;;;;7.85;0.80;;;10.40;61.30;;;;;;2318887;55;20961;-82
2023/01/09 09:09:52;;;;;;;3.65;0.80;;;10.40;61.20;;;;;;2323400;55;20965;-82
2023/01/09 09:12:19;;;;;;;4.97;0.93;;;10.40;61.20;;;;;;2560363;54;20914;-82
2023/01/09 09:17:32;;;;;;;5.30;0.80;;;10.50;61.40;;;;;;2559618;54;20938;-82
2023/01/09 09:19:59;;;;;;;2.85;0.80;;;10.50;61.40;;;;;;2319622;55;21777;-82
2023/01/09 09:22:25;;;;;;;1.62;0.70;;;10.60;61.40;;;;;;2560031;54;20941;-83
2023/01/09 09:24:52;;;;;;;2.50;0.70;;;10.60;61.40;;;;;;2560091;54;21858;-82
2023/01/09 09:27:19;;;;;;;4.72;1.12;;;10.60;61.40;;;;;;2559884;54;21753;-83
2023/01/09 09:29:46;;;;;;;5.10;1.20;;;10.70;61.50;;;;;;2560133;54;20969;-82
2023/01/09 09:32:12;;;;;;;3.33;1.00;;;10.70;61.40;;;;;;2560147;54;21532;-82
2023/01/09 09:34:39;;;;;;;4.60;1.08;;;10.70;61.30;;;;;;2560056;54;21029;-82
2023/01/09 09:37:06;;;;;;;4.90;1.15;;;10.80;61.30;;;;;;2319384;55;20918;-82
2023/01/09 09:39:34;;;;;;;7.57;1.33;;;10.80;61.20;;;;;;2559393;54;21025;-82
2023/01/09 09:45:14;;;;;;;3.80;1.17;;;10.80;61.10;;;;;;2559908;54;20958;-83
2023/01/09 09:48:11;;;;;;;3.33;0.90;;;10.90;60.70;;;;;;2319178;55;21376;-82
2023/01/09 09:53:58;;;;;;;6.30;2.08;;;11.00;60.90;;;;;;2559820;54;20946;-82
2023/01/09 09:56:25;;;;;;;10.90;3.05;;;11.00;60.70;;;;;;2531983;54;20973;-81
2023/01/09 09:58:55;;;;;;;7.53;2.35;;;11.10;61.00;;;;;;2320063;55;20969;-82
2023/01/09 10:01:35;;;;;;;6.32;1.95;;;11.10;61.00;;;;;;2533724;54;21041;-82
2023/01/09 10:04:03;;;;;;;5.60;1.90;;;11.10;61.00;;;;;;2319716;55;21017;-82
2023/01/09 10:06:42;;;;;;;5.47;1.83;;;11.10;61.00;;;;;;2319037;55;20941;-82
2023/01/09 10:09:54;;;;;;;7.15;1.92;;;11.20;61.00;;;;;;2559446;54;20926;-82
2023/01/09 10:12:32;;;;;;;4.97;1.35;;;11.20;60.50;;;;;;2559594;54;20946;-81
2023/01/09 10:15:25;;;;;;;6.00;1.58;;;11.30;61.00;;;;;;2319577;55;21016;-82
2023/01/09 10:18:10;;;;;;;5.95;1.40;;;11.30;61.10;;;;;;2319137;55;20921;-83
2023/01/09 10:24:21;;;;;;;3.45;0.90;;;11.40;60.70;;;;;;2317636;55;20938;-83
2023/01/09 10:26:49;;;;;;;2.90;0.98;;;11.50;60.50;;;;;;2558262;54;21965;-82
2023/01/09 10:29:36;;;;;;;4.00;0.90;;;11.50;61.00;;;;;;2557716;54;20925;-81
2023/01/09 10:32:23;;;;;;;7.18;1.00;;;11.50;60.80;;;;;;2318325;55;20942;-82
2023/01/09 10:36:04;;;;;;;3.20;0.80;;;11.60;60.50;;;;;;2318478;55;21395;-82
2023/01/09 10:38:33;;;;;;;3.15;0.62;;;11.60;60.40;;;;;;2557423;54;20934;-82
2023/01/09 10:41:15;;;;;;;3.62;1.12;;;11.60;60.40;;;;;;2318069;55;20928;-83
2023/01/09 10:45:18;;;;;;;4.57;0.85;;;11.60;60.40;;;;;;2558096;54;21502;-81
2023/01/09 10:47:45;;;;;;;4.55;0.70;;;11.70;59.90;;;;;;2316514;55;21878;-82
2023/01/09 10:50:17;;;;;;;3.42;0.70;;;11.70;60.20;;;;;;2315485;55;21951;-82
2023/01/09 10:52:44;;;;;;;3.90;0.82;;;11.70;60.10;;;;;;2555372;54;20957;-83
2023/01/09 10:55:18;;;;;;;5.43;1.00;;;11.70;60.20;;;;;;2315687;55;20961;-83
2023/01/09 10:57:46;;;;;;;6.82;1.23;;;11.70;60.00;;;;;;2315700;55;20925;-82
2023/01/09 11:00:22;;;;;;;4.97;1.05;;;11.70;60.20;;;;;;2554791;54;20982;-82
2023/01/09 11:02:50;;;;;;;5.05;1.00;;;11.70;60.10;;;;;;2555568;54;20985;-82
2023/01/09 11:05:25;;;;;;;3.10;0.90;;;11.70;60.20;;;;;;2315644;55;20941;-82
2023/01/09 11:08:23;;;;;;;5.85;1.15;;;11.80;60.20;;;;;;2554973;54;20954;-82
2023/01/09 11:10:52;;;;;;;4.32;0.73;;;11.80;59.90;;;;;;2555450;54;20925;-82
2023/01/09 11:13:24;;;;;;;4.53;0.90;;;11.80;60.20;;;;;;2555291;54;22473;-82
2023/01/09 11:16:19;;;;;;;3.92;1.30;;;11.80;60.00;;;;;;2315651;55;21347;-82
2023/01/09 11:18:56;;;;;;;3.15;0.70;;;11.80;59.90;;;;;;2318190;55;21187;-83
2023/01/09 11:21:39;;;;;;;4.55;0.85;;;11.80;60.00;;;;;;2318178;55;20922;-83
2023/01/09 11:25:58;;;;;;;4.87;0.80;;;11.90;60.00;;;;;;2558064;54;20981;-82
2023/01/09 11:28:24;;;;;;;3.47;0.65;;;11.90;59.90;;;;;;2557814;54;20934;-82
2023/01/09 11:30:55;;;;;;;3.03;0.55;;;11.90;60.30;;;;;;2557586;54;21053;-83
2023/01/09 11:33:26;;;;;;;3.67;1.23;;;11.90;60.20;;;;;;2558168;54;20942;-82
2023/01/09 11:36:01;;;;;;;2.53;0.70;;;11.90;60.20;;;;;;2317873;55;20997;-84
2023/01/09 11:38:28;;;;;;;2.75;0.60;;;11.90;60.00;;;;;;2557849;54;20981;-83
2023/01/09 11:40:57;;;;;;;2.87;0.80;;;12.00;60.20;;;;;;2317769;55;21548;-83
2023/01/09 11:43:34;;;;;;;3.65;0.82;;;12.00;60.30;;;;;;2318307;55;20974;-82
2023/01/09 11:46:02;;;;;;;3.80;0.77;;;12.00;60.30;;;;;;2318176;55;20937;-83
2023/01/09 11:50:18;;;;;;;2.42;0.73;;;12.00;60.30;;;;;;2525200;54;1839734;-83
2023/01/09 11:52:45;;;;;;;2.67;0.57;;;12.00;60.00;;;;;;2318109;55;21371;-83
2023/01/09 11:55:16;;;;;;;2.97;1.05;;;11.90;60.10;;;;;;2557501;54;20960;-82
2023/01/09 11:57:42;;;;;;;2.33;0.60;;;12.00;60.20;;;;;;2557671;54;21344;-83
2023/01/09 12:00:27;;;;;;;2.47;0.60;;;12.00;60.30;;;;;;2317668;55;21047;-83
2023/01/09 12:03:22;;;;;;;3.25;0.70;;;12.00;60.20;;;;;;2556972;54;20965;-82
2023/01/09 12:06:08;;;;;;;2.97;0.90;;;12.00;60.20;;;;;;2317695;55;20953;-82
2023/01/09 12:09:05;;;;;;;3.55;0.80;;;12.00;60.20;;;;;;2317898;55;20986;-83
2023/01/09 12:11:47;;;;;;;4.30;0.62;;;12.00;60.10;;;;;;2556362;54;20926;-83
2023/01/09 12:14:35;;;;;;;2.03;0.50;;;12.00;60.20;;;;;;2555593;54;21611;-82
2023/01/09 12:23:08;;;;;;;2.58;0.55;;;12.00;60.20;;;;;;2315288;55;20945;-83
2023/01/09 12:25:48;;;;;;;3.62;0.60;;;11.90;60.00;;;;;;2554799;54;20984;-84
2023/01/09 12:28:44;;;;;;;1.62;0.50;;;12.00;60.20;;;;;;2556054;54;20921;-83
2023/01/09 12:34:24;;;;;;;1.73;0.57;;;11.90;60.10;;;;;;2555441;54;21097;-82
2023/01/09 12:37:15;;;;;;;1.15;0.60;;;11.90;60.20;;;;;;2554836;54;21820;-83
2023/01/09 12:42:49;;;;;;;2.22;0.88;;;11.90;60.50;;;;;;2315627;55;20981;-83
2023/01/09 12:46:49;;;;;;;1.67;0.57;;;11.90;60.60;;;;;;2557367;54;21480;-83
2023/01/09 12:49:33;;;;;;;4.68;0.80;;;11.80;60.30;;;;;;2320799;55;20989;-84
2023/01/09 12:52:16;;;;;;;2.60;0.70;;;11.80;60.00;;;;;;2559690;54;21530;-83
2023/01/09 12:54:48;;;;;;;5.28;0.90;;;11.70;60.00;;;;;;2558821;54;20941;-85
2023/01/09 12:57:21;;;;;;;5.57;1.70;;;11.60;60.30;;;;;;2318479;55;21076;-83
2023/01/09 12:59:49;;;;;;;3.37;1.48;;;11.60;60.70;;;;;;2559042;54;20989;-84
2023/01/09 13:02:34;;;;;;;2.60;1.02;;;11.50;60.90;;;;;;2559165;54;20982;-84
2023/01/09 13:05:05;;;;;;;4.40;1.00;;;11.50;61.30;;;;;;2559895;54;21040;-84
2023/01/09 13:07:49;;;;;;;1.87;0.82;;;11.60;61.70;;;;;;2320136;55;20902;-84
2023/01/09 13:10:24;;;;;;;1.90;0.68;;;11.40;61.80;;;;;;2559806;54;21559;-84
2023/01/09 13:12:50;;;;;;;2.92;0.80;;;11.40;62.20;;;;;;2559757;54;20981;-84
2023/01/09 13:15:41;;;;;;;2.45;1.00;;;11.40;62.50;;;;;;2560895;54;20977;-83
2023/01/09 13:18:30;;;;;;;3.10;1.00;;;11.40;62.80;;;;;;2320038;55;20997;-84
2023/01/09 13:20:57;;;;;;;3.25;1.52;;;11.40;63.00;;;;;;2558996;54;20997;-83
2023/01/09 13:30:17;;;;;;;3.47;1.33;;;11.40;63.10;;;;;;2320432;55;20985;-84
2023/01/09 13:32:57;;;;;;;1.77;0.55;;;11.40;62.90;;;;;;2560786;54;20953;-84
2023/01/09 13:35:25;;;;;;;3.20;0.82;;;11.40;63.50;;;;;;2562025;54;20922;-85
2023/01/09 13:37:51;;;;;;;2.83;1.00;;;11.40;63.80;;;;;;2559987;54;21820;-84
2023/01/09 13:40:28;;;;;;;3.40;1.40;;;11.30;63.90;;;;;;2319160;55;20965;-84
2023/01/09 13:43:01;;;;;;;4.80;1.83;;;11.30;64.00;;;;;;2557849;54;20997;-84
2023/01/09 13:45:29;;;;;;;4.80;2.00;;;11.30;64.20;;;;;;2319729;55;21040;-85
2023/01/09 13:49:57;;;;;;;6.45;2.80;;;11.30;64.30;;;;;;2559264;54;21001;-84
2023/01/09 13:52:45;;;;;;;6.25;3.00;;;11.40;64.20;;;;;;2321343;55;20917;-83
2023/01/09 13:55:23;;;;;;;6.53;2.95;;;11.40;64.40;;;;;;2561987;54;20965;-83
2023/01/09 14:01:42;;;;;;;6.35;2.60;;;11.40;64.40;;;;;;2324175;55;21303;-83
2023/01/09 14:04:36;;;;;;;5.57;2.50;;;11.40;63.90;;;;;;2321421;55;20938;-84
2023/01/09 14:07:18;;;;;;;6.82;2.80;;;11.30;64.00;;;;;;2319695;55;21031;-84
2023/01/09 14:09:54;;;;;;;6.45;2.50;;;11.30;64.10;;;;;;2560142;54;21546;-83
2023/01/09 14:12:21;;;;;;;4.60;1.87;;;11.30;64.30;;;;;;2559462;54;21743;-83
2023/01/09 14:14:48;;;;;;;5.32;1.75;;;11.20;64.20;;;;;;2559360;54;20938;-83
2023/01/09 14:17:32;;;;;;;3.72;1.60;;;11.20;64.20;;;;;;2558967;54;21470;-85